Time;durP1;ratioP1;P1;durP2;ratioP2;P2;SDS_P1;SDS_P2;PMS_P1;PMS_P2;Temp;Humidity;BMP_temperature;BMP_pressure;BME280_temperature;BME280_humidity;BME280_pressure;Samples;Min_cycle;Max_cycle;Signal;HPM_P1;HPM_P2
2023/04/12 15:04:41;;;;;;;1.30;1.30;;;;;;;;;;5014434;23;20238;-82
2023/04/12 15:07:08;;;;;;;1.27;1.27;;;;;;;;;;5010154;28;20239;-82
2023/04/12 15:09:35;;;;;;;1.27;1.20;;;;;;;;;;5010259;28;20211;-83
2023/04/12 15:12:03;;;;;;;1.17;1.07;;;;;;;;;;5010331;28;20228;-84
2023/04/12 15:14:30;;;;;;;1.37;1.27;;;;;;;;;;5015840;28;20233;-83
2023/04/12 15:16:57;;;;;;;2.07;1.40;;;;;;;;;;5030790;28;20314;-83
2023/04/12 15:19:24;;;;;;;1.43;1.33;;;;;;;;;;5019766;28;20221;-83
2023/04/12 15:21:53;;;;;;;1.27;0.90;;;;;;;;;;5010935;28;20620;-83
2023/04/12 15:24:21;;;;;;;1.33;1.20;;;;;;;;;;5020809;28;20658;-83
2023/04/12 15:26:49;;;;;;;1.20;1.20;;;;;;;;;;5022019;28;20230;-83
2023/04/12 15:29:16;;;;;;;2.10;1.70;;;;;;;;;;5020029;28;20229;-83
2023/04/12 15:31:44;;;;;;;1.30;1.20;;;;;;;;;;5013260;28;20231;-82
2023/04/12 15:34:12;;;;;;;1.00;1.00;;;;;;;;;;5019182;28;20254;-82
2023/04/12 15:36:41;;;;;;;1.17;1.13;;;;;;;;;;5018244;28;20701;-85
2023/04/12 15:39:10;;;;;;;1.03;0.97;;;;;;;;;;5018944;28;20301;-83
2023/04/12 15:41:38;;;;;;;2.13;1.00;;;;;;;;;;5018322;28;20231;-83
2023/04/12 15:44:05;;;;;;;1.40;1.30;;;;;;;;;;5018690;28;20229;-83
2023/04/12 15:46:32;;;;;;;1.30;1.20;;;;;;;;;;5012815;28;20230;-84
2023/04/12 15:49:00;;;;;;;1.40;1.30;;;;;;;;;;5029682;28;20778;-84
2023/04/12 15:51:27;;;;;;;1.20;1.20;;;;;;;;;;5023012;28;20238;-83
2023/04/12 15:53:54;;;;;;;1.20;1.20;;;;;;;;;;5021623;28;20231;-84
2023/04/12 15:56:24;;;;;;;1.17;1.00;;;;;;;;;;5012744;28;20604;-84
2023/04/12 15:58:51;;;;;;;1.00;1.00;;;;;;;;;;5021638;28;20297;-85
2023/04/12 16:01:18;;;;;;;0.93;0.93;;;;;;;;;;5020403;28;20241;-84
2023/04/12 16:03:47;;;;;;;2.10;1.03;;;;;;;;;;5029916;28;20619;-85
2023/04/12 16:06:18;;;;;;;1.17;1.17;;;;;;;;;;5013520;28;20231;-84
2023/04/12 16:08:46;;;;;;;0.93;0.93;;;;;;;;;;5015000;28;20202;-84
2023/04/12 16:11:13;;;;;;;1.93;1.50;;;;;;;;;;5021203;28;20242;-84
2023/04/12 16:13:44;;;;;;;1.53;1.43;;;;;;;;;;5029422;28;20226;-84
2023/04/12 16:16:12;;;;;;;1.23;1.23;;;;;;;;;;5013044;28;20705;-84
2023/04/12 16:18:39;;;;;;;2.13;1.63;;;;;;;;;;5018065;28;20215;-88
2023/04/12 16:21:07;;;;;;;1.30;1.20;;;;;;;;;;5023387;28;20266;-84
2023/04/12 16:23:34;;;;;;;0.80;0.80;;;;;;;;;;5025161;28;20226;-84
2023/04/12 16:26:01;;;;;;;1.07;1.07;;;;;;;;;;5017681;28;20239;-83
2023/04/12 16:28:29;;;;;;;1.57;1.37;;;;;;;;;;5021353;28;20211;-84
2023/04/12 16:30:57;;;;;;;1.40;1.30;;;;;;;;;;5013316;28;20597;-83
2023/04/12 16:33:24;;;;;;;1.60;1.50;;;;;;;;;;5014440;28;20709;-85
2023/04/12 16:35:53;;;;;;;1.47;1.37;;;;;;;;;;5013033;28;20709;-84
2023/04/12 16:38:20;;;;;;;1.00;1.00;;;;;;;;;;5013165;28;20198;-85
2023/04/12 16:40:47;;;;;;;1.17;0.70;;;;;;;;;;5024877;28;20230;-86
2023/04/12 16:43:14;;;;;;;0.87;0.87;;;;;;;;;;5024655;28;20235;-86
2023/04/12 16:45:44;;;;;;;1.20;1.10;;;;;;;;;;5013203;28;20582;-86
2023/04/12 16:48:13;;;;;;;0.87;0.87;;;;;;;;;;5021329;28;20219;-85
2023/04/12 16:50:43;;;;;;;1.23;1.13;;;;;;;;;;5017433;28;20219;-86
2023/04/12 16:53:10;;;;;;;1.00;1.00;;;;;;;;;;5034209;28;20214;-85
2023/04/12 16:55:41;;;;;;;1.25;1.17;;;;;;;;;;5022315;28;20234;-84
2023/04/12 16:58:08;;;;;;;1.60;1.38;;;;;;;;;;5022564;28;20214;-85
2023/04/12 17:00:35;;;;;;;1.23;1.10;;;;;;;;;;5013425;28;20207;-85
2023/04/12 17:03:02;;;;;;;0.95;0.95;;;;;;;;;;5020362;28;20767;-84
2023/04/12 17:05:31;;;;;;;1.15;1.05;;;;;;;;;;5022670;28;20211;-85
2023/04/12 17:07:58;;;;;;;0.70;0.70;;;;;;;;;;5021783;28;20215;-84
2023/04/12 17:10:25;;;;;;;0.80;0.80;;;;;;;;;;5023439;28;20215;-85
2023/04/12 17:12:53;;;;;;;1.15;1.15;;;;;;;;;;5019898;28;20235;-85
2023/04/12 17:15:20;;;;;;;1.05;1.05;;;;;;;;;;5022544;28;20207;-85
2023/04/12 17:17:48;;;;;;;0.77;0.77;;;;;;;;;;5024548;28;20596;-85
2023/04/12 17:20:16;;;;;;;1.35;1.00;;;;;;;;;;5016540;28;20211;-83
2023/04/12 17:22:45;;;;;;;2.60;1.10;;;;;;;;;;5012927;28;20231;-83
2023/04/12 17:25:12;;;;;;;0.80;0.80;;;;;;;;;;5013733;28;20231;-83
2023/04/12 17:27:40;;;;;;;1.00;1.00;;;;;;;;;;5021254;28;20228;-82
2023/04/12 17:30:09;;;;;;;0.70;0.70;;;;;;;;;;5019215;28;20238;-84
2023/04/12 17:32:36;;;;;;;0.90;0.90;;;;;;;;;;5012923;28;20313;-82
2023/04/12 17:35:03;;;;;;;0.57;0.57;;;;;;;;;;5021765;28;20259;-82
2023/04/12 17:37:31;;;;;;;0.70;0.70;;;;;;;;;;5012810;28;20242;-82
2023/04/12 17:39:59;;;;;;;0.90;0.90;;;;;;;;;;5013407;28;20217;-81
2023/04/12 17:42:26;;;;;;;0.73;0.73;;;;;;;;;;5017460;28;20246;-85
2023/04/12 17:44:54;;;;;;;1.00;0.90;;;;;;;;;;5019263;28;20231;-86
2023/04/12 17:47:21;;;;;;;1.43;0.80;;;;;;;;;;5012284;28;20239;-86
2023/04/12 17:49:48;;;;;;;1.70;1.60;;;;;;;;;;5012838;28;20793;-85
2023/04/12 17:52:17;;;;;;;1.50;1.23;;;;;;;;;;5012379;28;20224;-86
2023/04/12 17:54:44;;;;;;;1.37;1.27;;;;;;;;;;5016824;28;20238;-86
2023/04/12 17:57:13;;;;;;;1.43;1.33;;;;;;;;;;5011466;28;20238;-85
2023/04/12 17:59:40;;;;;;;1.10;1.10;;;;;;;;;;5023819;28;20280;-85
2023/04/12 18:02:07;;;;;;;0.73;0.73;;;;;;;;;;5023746;28;20234;-85
2023/04/12 18:04:35;;;;;;;1.70;1.20;;;;;;;;;;5021440;28;20239;-85
2023/04/12 18:07:03;;;;;;;1.27;1.17;;;;;;;;;;5012169;28;20620;-85
2023/04/12 18:09:30;;;;;;;1.00;1.00;;;;;;;;;;5020314;28;20218;-85
2023/04/12 18:11:58;;;;;;;1.90;1.00;;;;;;;;;;5020541;28;20223;-87
2023/04/12 18:14:27;;;;;;;1.50;1.10;;;;;;;;;;5029707;28;20235;-84
2023/04/12 18:16:54;;;;;;;1.20;1.17;;;;;;;;;;5031440;28;20285;-85
2023/04/12 18:19:21;;;;;;;1.20;1.10;;;;;;;;;;5015127;28;20262;-84
2023/04/12 18:21:49;;;;;;;1.20;1.17;;;;;;;;;;5027734;28;20243;-85
2023/04/12 18:24:16;;;;;;;1.87;1.37;;;;;;;;;;5014261;28;20600;-84
2023/04/12 18:26:43;;;;;;;1.10;1.10;;;;;;;;;;5022996;28;20235;-84
2023/04/12 18:29:13;;;;;;;1.30;1.20;;;;;;;;;;5031813;28;20593;-85
2023/04/12 18:31:42;;;;;;;1.37;1.30;;;;;;;;;;5015050;28;20241;-86
2023/04/12 18:34:09;;;;;;;1.03;1.03;;;;;;;;;;5016855;28;20227;-86
2023/04/12 18:36:36;;;;;;;1.37;1.30;;;;;;;;;;5011311;28;20235;-85
2023/04/12 18:39:04;;;;;;;1.40;1.30;;;;;;;;;;5020151;28;20234;-85
2023/04/12 18:41:31;;;;;;;2.40;1.60;;;;;;;;;;5014005;28;20238;-83
2023/04/12 18:43:58;;;;;;;1.40;1.30;;;;;;;;;;5026220;28;20234;-85
2023/04/12 18:46:27;;;;;;;1.20;1.10;;;;;;;;;;5011366;28;20246;-84
2023/04/12 18:48:56;;;;;;;1.37;1.27;;;;;;;;;;5016313;28;20718;-84
2023/04/12 18:51:24;;;;;;;1.50;1.40;;;;;;;;;;5022929;28;20227;-84
2023/04/12 18:53:51;;;;;;;1.90;1.80;;;;;;;;;;5017847;28;20320;-85
2023/04/12 18:56:22;;;;;;;1.53;1.20;;;;;;;;;;5025159;28;20609;-84
2023/04/12 18:58:50;;;;;;;2.47;1.17;;;;;;;;;;5022578;28;20292;-85
2023/04/12 19:01:17;;;;;;;1.90;1.20;;;;;;;;;;5023093;28;20235;-85
2023/04/12 19:03:44;;;;;;;2.10;1.17;;;;;;;;;;5014575;28;20234;-84
2023/04/12 19:06:13;;;;;;;2.63;1.20;;;;;;;;;;5011901;28;20242;-84
2023/04/12 19:08:40;;;;;;;1.23;1.23;;;;;;;;;;5011651;28;20219;-84
2023/04/12 19:11:07;;;;;;;2.20;1.17;;;;;;;;;;5019298;28;20235;-84
2023/04/12 19:13:35;;;;;;;1.33;1.30;;;;;;;;;;5019228;28;20241;-87
2023/04/12 19:16:06;;;;;;;1.47;1.20;;;;;;;;;;5022941;28;20229;-86
2023/04/12 19:18:33;;;;;;;1.33;1.27;;;;;;;;;;5021187;28;20565;-86
2023/04/12 19:21:00;;;;;;;2.00;1.80;;;;;;;;;;5022852;28;20719;-86
2023/04/12 19:23:29;;;;;;;2.40;2.00;;;;;;;;;;5011074;28;20235;-83
2023/04/12 19:25:58;;;;;;;1.87;1.40;;;;;;;;;;5013475;28;20285;-84
2023/04/12 19:28:25;;;;;;;1.50;1.40;;;;;;;;;;5020368;28;20210;-83
2023/04/12 19:30:52;;;;;;;1.10;1.10;;;;;;;;;;5014692;28;20258;-83
2023/04/12 19:33:19;;;;;;;1.20;1.10;;;;;;;;;;5019060;28;20247;-83
2023/04/12 19:35:46;;;;;;;1.17;1.10;;;;;;;;;;5019647;28;20239;-83
2023/04/12 19:38:14;;;;;;;2.47;1.40;;;;;;;;;;5027594;28;20213;-83
2023/04/12 19:40:42;;;;;;;3.50;1.40;;;;;;;;;;5019192;28;20234;-83
2023/04/12 19:43:12;;;;;;;2.77;1.77;;;;;;;;;;5020341;28;20229;-86
2023/04/12 19:45:40;;;;;;;2.90;1.97;;;;;;;;;;5020135;28;20217;-84
2023/04/12 19:48:07;;;;;;;4.30;1.90;;;;;;;;;;5019991;28;20204;-84
2023/04/12 19:50:34;;;;;;;2.87;1.77;;;;;;;;;;5020075;28;20212;-84
2023/04/12 19:53:02;;;;;;;1.30;1.30;;;;;;;;;;5019637;28;20641;-84
2023/04/12 19:55:29;;;;;;;1.37;1.37;;;;;;;;;;5023143;28;20832;-84
2023/04/12 19:57:58;;;;;;;1.60;1.50;;;;;;;;;;5023401;28;20218;-84
2023/04/12 20:00:26;;;;;;;1.87;1.37;;;;;;;;;;5022837;28;20214;-84
2023/04/12 20:02:54;;;;;;;1.27;1.27;;;;;;;;;;5023172;28;20222;-84
2023/04/12 20:05:22;;;;;;;2.63;2.00;;;;;;;;;;5023219;28;20211;-84
2023/04/12 20:07:51;;;;;;;3.20;1.77;;;;;;;;;;5022869;28;20270;-84
2023/04/12 20:10:19;;;;;;;2.63;1.77;;;;;;;;;;5028016;28;20731;-84
2023/04/12 20:12:46;;;;;;;1.47;1.10;;;;;;;;;;5023034;28;20227;-84
2023/04/12 20:15:14;;;;;;;1.10;1.10;;;;;;;;;;5023208;28;20227;-84
2023/04/12 20:17:42;;;;;;;2.13;1.60;;;;;;;;;;5024916;28;20239;-86
2023/04/12 20:20:11;;;;;;;4.63;2.30;;;;;;;;;;5026290;28;20207;-85
2023/04/12 20:22:39;;;;;;;3.43;1.80;;;;;;;;;;5023863;28;20234;-85
2023/04/12 20:25:08;;;;;;;1.73;1.63;;;;;;;;;;5025792;28;20237;-86
2023/04/12 20:27:36;;;;;;;2.40;2.23;;;;;;;;;;5024264;28;20352;-84
2023/04/12 20:30:03;;;;;;;3.17;2.30;;;;;;;;;;5022504;28;20293;-84
2023/04/12 20:32:34;;;;;;;2.70;2.20;;;;;;;;;;5025649;28;20710;-84
2023/04/12 20:35:01;;;;;;;2.67;2.20;;;;;;;;;;5022354;28;20257;-83
2023/04/12 20:37:28;;;;;;;2.13;1.80;;;;;;;;;;5019971;28;20310;-86
2023/04/12 20:39:55;;;;;;;1.90;1.60;;;;;;;;;;5026141;28;20210;-86
2023/04/12 20:42:22;;;;;;;10.23;4.50;;;;;;;;;;5022138;28;20231;-85
2023/04/12 20:44:49;;;;;;;4.47;1.60;;;;;;;;;;5026934;28;20246;-85
2023/04/12 20:47:18;;;;;;;1.60;1.50;;;;;;;;;;5021943;28;20233;-85
2023/04/12 20:49:46;;;;;;;1.60;1.50;;;;;;;;;;5025721;28;20222;-85
2023/04/12 20:52:15;;;;;;;1.53;1.43;;;;;;;;;;5020331;28;20238;-85
2023/04/12 20:54:44;;;;;;;2.60;2.13;;;;;;;;;;5023433;28;20313;-85
2023/04/12 20:57:11;;;;;;;1.90;1.80;;;;;;;;;;5022718;28;20243;-85
2023/04/12 20:59:39;;;;;;;2.00;1.90;;;;;;;;;;5023750;28;20676;-85
2023/04/12 21:02:06;;;;;;;2.93;1.93;;;;;;;;;;5025433;28;20233;-85
2023/04/12 21:04:34;;;;;;;2.20;2.00;;;;;;;;;;5024295;28;20267;-86
2023/04/12 21:07:03;;;;;;;5.57;1.90;;;;;;;;;;5018598;28;20230;-85
2023/04/12 21:09:31;;;;;;;1.97;1.47;;;;;;;;;;5024748;28;20298;-86
2023/04/12 21:12:01;;;;;;;2.10;1.43;;;;;;;;;;5021845;28;20257;-86
2023/04/12 21:14:28;;;;;;;2.57;1.50;;;;;;;;;;5022076;28;20230;-86
2023/04/12 21:16:55;;;;;;;2.73;1.50;;;;;;;;;;5025060;28;20230;-86
2023/04/12 21:19:22;;;;;;;3.07;1.50;;;;;;;;;;5025235;28;20218;-85
2023/04/12 21:21:50;;;;;;;1.73;1.60;;;;;;;;;;5021887;28;20526;-86
2023/04/12 21:24:19;;;;;;;1.80;1.70;;;;;;;;;;5021867;28;20231;-86
2023/04/12 21:26:55;;;;;;;1.80;1.70;;;;;;;;;;5023808;28;20231;-84
2023/04/12 21:29:22;;;;;;;2.33;1.70;;;;;;;;;;5025299;28;20209;-84
2023/04/12 21:31:49;;;;;;;3.13;2.10;;;;;;;;;;5021627;28;20250;-84
2023/04/12 21:34:17;;;;;;;2.13;1.90;;;;;;;;;;5021584;28;20223;-87
2023/04/12 21:36:44;;;;;;;2.07;1.73;;;;;;;;;;5023308;28;20235;-86
2023/04/12 21:39:11;;;;;;;2.10;1.47;;;;;;;;;;5024869;28;20673;-87
2023/04/12 21:41:39;;;;;;;1.50;1.30;;;;;;;;;;5023205;28;20237;-87
2023/04/12 21:44:06;;;;;;;2.07;1.60;;;;;;;;;;5021155;28;20227;-87
2023/04/12 21:46:33;;;;;;;1.57;1.47;;;;;;;;;;5021030;28;20242;-86
2023/04/12 21:49:00;;;;;;;1.90;1.40;;;;;;;;;;5021282;28;20212;-87
2023/04/12 21:51:27;;;;;;;2.20;1.40;;;;;;;;;;5027643;28;20227;-86
2023/04/12 21:53:54;;;;;;;1.20;1.20;;;;;;;;;;5016972;28;20222;-86
2023/04/12 21:56:22;;;;;;;1.10;1.10;;;;;;;;;;5018933;28;20661;-86
2023/04/12 21:58:50;;;;;;;1.07;1.07;;;;;;;;;;5022355;28;20302;-86
2023/04/12 22:01:18;;;;;;;1.40;1.30;;;;;;;;;;5025911;28;20230;-86
2023/04/12 22:03:45;;;;;;;1.10;1.10;;;;;;;;;;5022007;28;20310;-86
2023/04/12 22:06:12;;;;;;;1.27;1.20;;;;;;;;;;5020620;28;20239;-87
2023/04/12 22:08:42;;;;;;;2.50;1.63;;;;;;;;;;5021976;28;20582;-86
2023/04/12 22:11:10;;;;;;;1.60;1.50;;;;;;;;;;5024049;28;20230;-87
2023/04/12 22:13:40;;;;;;;1.40;1.30;;;;;;;;;;5023059;28;20219;-87
2023/04/12 22:16:11;;;;;;;1.40;1.30;;;;;;;;;;5020276;28;20717;-86
2023/04/12 22:18:39;;;;;;;4.17;1.37;;;;;;;;;;5020310;28;20215;-87
2023/04/12 22:21:06;;;;;;;1.77;1.40;;;;;;;;;;5020496;28;20306;-86
2023/04/12 22:23:35;;;;;;;2.03;1.67;;;;;;;;;;5020994;28;20233;-87
2023/04/12 22:26:04;;;;;;;1.40;1.30;;;;;;;;;;5019713;28;20657;-86
2023/04/12 22:28:31;;;;;;;1.10;1.10;;;;;;;;;;5020543;28;20212;-87
2023/04/12 22:30:59;;;;;;;1.60;1.50;;;;;;;;;;5020182;28;20227;-86
2023/04/12 22:33:27;;;;;;;1.70;1.37;;;;;;;;;;5019962;28;20746;-87
2023/04/12 22:35:55;;;;;;;1.20;1.20;;;;;;;;;;5020573;28;20226;-87
2023/04/12 22:38:22;;;;;;;0.97;0.97;;;;;;;;;;5020798;28;20207;-86
2023/04/12 22:40:49;;;;;;;1.13;1.13;;;;;;;;;;5022544;28;20234;-87
2023/04/12 22:43:21;;;;;;;1.37;1.20;;;;;;;;;;5023763;28;20230;-87
2023/04/12 22:45:48;;;;;;;1.30;1.30;;;;;;;;;;5021109;28;20232;-87
2023/04/12 22:48:15;;;;;;;2.10;1.47;;;;;;;;;;5020509;28;20210;-87
2023/04/12 22:50:44;;;;;;;1.43;1.40;;;;;;;;;;5021235;28;20277;-87
2023/04/12 22:53:12;;;;;;;2.03;1.27;;;;;;;;;;5026350;28;20231;-87
2023/04/12 22:55:40;;;;;;;1.13;1.13;;;;;;;;;;5020810;28;20199;-87
2023/04/12 22:58:08;;;;;;;1.90;1.40;;;;;;;;;;5023635;28;20207;-86
2023/04/12 23:00:35;;;;;;;1.10;1.10;;;;;;;;;;5014896;28;20689;-86
2023/04/12 23:03:02;;;;;;;3.20;1.50;;;;;;;;;;5030299;28;20211;-87
2023/04/12 23:05:29;;;;;;;1.63;1.30;;;;;;;;;;5022616;28;20229;-86
2023/04/12 23:07:58;;;;;;;3.23;1.50;;;;;;;;;;5020979;28;20203;-88
2023/04/12 23:10:25;;;;;;;1.20;1.20;;;;;;;;;;5026662;28;20648;-87
2023/04/12 23:12:52;;;;;;;1.37;1.37;;;;;;;;;;5023185;28;20701;-87
2023/04/12 23:15:20;;;;;;;1.40;1.40;;;;;;;;;;5024039;28;20222;-87
2023/04/12 23:17:48;;;;;;;1.20;1.20;;;;;;;;;;5023223;28;20305;-88
2023/04/12 23:20:15;;;;;;;3.10;1.63;;;;;;;;;;5023552;28;20238;-88
2023/04/12 23:22:53;;;;;;;1.50;1.40;;;;;;;;;;5022589;28;20236;-88
2023/04/12 23:25:22;;;;;;;1.27;1.23;;;;;;;;;;5020669;28;20254;-88
2023/04/12 23:27:49;;;;;;;1.23;1.23;;;;;;;;;;5022372;28;20227;-87
2023/04/12 23:30:17;;;;;;;1.93;1.53;;;;;;;;;;5027692;28;20675;-88
2023/04/12 23:32:45;;;;;;;1.23;1.23;;;;;;;;;;5026513;28;20238;-87
2023/04/12 23:35:13;;;;;;;1.37;1.27;;;;;;;;;;5021334;28;20242;-87
2023/04/12 23:37:41;;;;;;;1.50;1.40;;;;;;;;;;5026404;28;20314;-87
2023/04/12 23:40:14;;;;;;;1.30;1.20;;;;;;;;;;5024181;28;20209;-87
2023/04/12 23:42:43;;;;;;;2.67;1.20;;;;;;;;;;5032088;28;20258;-87
2023/04/12 23:45:11;;;;;;;2.70;1.30;;;;;;;;;;5025337;28;20230;-88
2023/04/12 23:47:38;;;;;;;1.50;1.40;;;;;;;;;;5026211;28;20226;-87
2023/04/12 23:50:06;;;;;;;1.63;1.53;;;;;;;;;;5026591;28;20260;-88
2023/04/12 23:52:33;;;;;;;1.37;1.27;;;;;;;;;;5034194;28;20265;-87
2023/04/12 23:55:01;;;;;;;2.77;1.13;;;;;;;;;;5027646;28;20233;-88
2023/04/12 23:57:29;;;;;;;6.90;3.33;;;;;;;;;;5025535;28;20235;-87
2023/04/12 23:59:57;;;;;;;1.30;1.30;;;;;;;;;;5021760;28;20261;-87
